createdAt,value
2018-01-24T00:00:04.754Z,22.9
2018-01-24T00:02:05.293Z,22.8
2018-01-24T00:04:10.098Z,22.8
2018-01-24T00:06:05.383Z,22.9
2018-01-24T00:08:05.592Z,22.9
2018-01-24T00:10:05.392Z,22.8
2018-01-24T00:12:05.180Z,22.8
2018-01-24T00:14:05.054Z,22.8
2018-01-24T00:16:04.866Z,22.8
2018-01-24T00:18:04.867Z,22.8
2018-01-24T00:20:04.964Z,22.8
2018-01-24T00:22:04.817Z,22.8
2018-01-24T00:24:05.578Z,22.8
2018-01-24T00:26:05.452Z,22.8
2018-01-24T00:28:07.292Z,22.8
2018-01-24T00:30:05.006Z,22.8
2018-01-24T00:32:07.331Z,22.8
2018-01-24T00:34:04.993Z,22.8
2018-01-24T00:36:04.739Z,22.8
2018-01-24T00:38:05.306Z,22.8
2018-01-24T00:40:07.560Z,22.8
2018-01-24T00:42:05.327Z,22.8
2018-01-24T00:44:05.720Z,22.8
2018-01-24T00:46:05.521Z,22.8
2018-01-24T00:48:05.575Z,22.8
2018-01-24T00:50:04.905Z,22.8
2018-01-24T00:52:04.678Z,22.8
2018-01-24T00:54:05.421Z,22.8
2018-01-24T00:56:05.484Z,22.8
2018-01-24T00:58:05.257Z,22.7
2018-01-24T01:00:05.006Z,22.8
2018-01-24T01:02:04.765Z,22.8
2018-01-24T01:04:08.049Z,22.7
2018-01-24T01:06:04.819Z,22.7
2018-01-24T01:08:05.600Z,22.7
2018-01-24T01:10:07.871Z,22.7
2018-01-24T01:12:04.776Z,22.7
2018-01-24T01:14:05.831Z,22.7
2018-01-24T01:16:07.671Z,22.7
2018-01-24T01:18:05.628Z,22.7
2018-01-24T01:20:05.356Z,22.7
2018-01-24T01:22:05.122Z,22.7
2018-01-24T01:24:07.403Z,22.7
2018-01-24T01:26:05.401Z,22.7
2018-01-24T01:28:05.241Z,22.7
2018-01-24T01:30:05.515Z,22.7
2018-01-24T01:32:05.315Z,22.7
2018-01-24T01:34:07.665Z,22.6
2018-01-24T01:36:05.738Z,22.7
2018-01-24T01:38:05.502Z,22.7
2018-01-24T01:40:05.393Z,22.7
2018-01-24T01:42:05.177Z,22.7
2018-01-24T01:44:10.629Z,22.6
2018-01-24T01:46:10.620Z,22.6
2018-01-24T01:48:05.416Z,22.6
2018-01-24T01:50:05.143Z,22.6
2018-01-24T01:52:07.421Z,22.6
2018-01-24T01:54:05.194Z,22.6
2018-01-24T01:56:05.510Z,22.6
2018-01-24T01:58:05.290Z,22.6
2018-01-24T02:00:07.667Z,22.6
2018-01-24T02:02:08.263Z,22.5
2018-01-24T02:04:05.051Z,22.6
2018-01-24T02:06:12.417Z,22.5
2018-01-24T02:08:04.731Z,22.5
2018-01-24T02:10:05.499Z,22.6
2018-01-24T02:12:05.242Z,22.5
2018-01-24T02:14:04.978Z,22.5
2018-01-24T02:16:05.418Z,22.5
2018-01-24T02:18:05.346Z,22.5
2018-01-24T02:20:04.986Z,22.5
2018-01-24T02:22:04.746Z,22.5
2018-01-24T02:24:05.511Z,22.5
2018-01-24T02:26:05.281Z,22.5
2018-01-24T02:28:05.044Z,22.5
2018-01-24T02:30:04.877Z,22.5
2018-01-24T02:32:04.702Z,22.5
2018-01-24T02:34:05.018Z,22.5
2018-01-24T02:36:04.888Z,22.5
2018-01-24T02:38:05.045Z,22.5
2018-01-24T02:40:04.892Z,22.5
2018-01-24T02:42:07.206Z,22.4
2018-01-24T02:44:05.242Z,22.4
2018-01-24T02:46:07.609Z,22.4
2018-01-24T02:48:10.435Z,22.4
2018-01-24T02:50:05.269Z,22.4
2018-01-24T02:52:05.045Z,22.4
2018-01-24T02:54:04.805Z,22.5
2018-01-24T02:56:05.773Z,22.4
2018-01-24T02:58:05.096Z,22.4
2018-01-24T03:00:04.918Z,22.5
2018-01-24T03:02:04.712Z,22.4
2018-01-24T03:04:05.462Z,22.4
2018-01-24T03:06:10.304Z,22.4
2018-01-24T03:08:07.587Z,22.4
2018-01-24T03:10:07.846Z,22.4
2018-01-24T03:12:06.173Z,22.4
2018-01-24T03:14:07.462Z,22.4
2018-01-24T03:16:05.256Z,22.3
2018-01-24T03:18:04.765Z,22.4
2018-01-24T03:20:05.322Z,22.4
2018-01-24T03:22:15.188Z,22.4
2018-01-24T03:24:04.941Z,22.4
2018-01-24T03:26:07.789Z,22.4
2018-01-24T03:28:05.516Z,22.4
2018-01-24T03:30:05.252Z,22.4
2018-01-24T03:32:05.572Z,22.4
2018-01-24T03:34:05.316Z,22.4
2018-01-24T03:36:05.115Z,22.4
2018-01-24T03:38:04.871Z,22.4
2018-01-24T03:40:05.616Z,22.3
2018-01-24T03:42:05.394Z,22.4
2018-01-24T03:44:05.158Z,22.4
2018-01-24T03:46:09.968Z,22.3
2018-01-24T03:48:09.866Z,22.3
2018-01-24T03:50:05.633Z,22.3
2018-01-24T03:52:05.375Z,22.3
2018-01-24T03:54:14.768Z,22.4
2018-01-24T03:56:08.044Z,22.3
2018-01-24T03:58:04.820Z,22.3
2018-01-24T04:00:08.076Z,22.3
2018-01-24T04:02:05.397Z,22.3
2018-01-24T04:04:05.216Z,22.3
2018-01-24T04:06:10.562Z,22.3
2018-01-24T04:08:05.392Z,22.3
2018-01-24T04:10:04.670Z,22.3
2018-01-24T04:12:04.972Z,22.3
2018-01-24T04:14:04.933Z,22.3
2018-01-24T04:16:07.487Z,22.3
2018-01-24T04:18:05.550Z,22.3
2018-01-24T04:20:05.310Z,22.3
2018-01-24T04:22:05.102Z,22.3
2018-01-24T04:24:04.815Z,22.3
2018-01-24T04:26:05.591Z,22.3
2018-01-24T04:28:05.433Z,22.3
2018-01-24T04:30:04.724Z,22.3
2018-01-24T04:32:05.842Z,22.3
2018-01-24T04:34:08.112Z,22.3
2018-01-24T04:36:07.389Z,22.3
2018-01-24T04:38:10.490Z,22.2
2018-01-24T04:40:05.337Z,22.3
2018-01-24T04:42:05.613Z,22.3
2018-01-24T04:44:12.982Z,22.3
2018-01-24T04:46:04.740Z,22.3
2018-01-24T04:48:08.112Z,22.3
2018-01-24T04:50:04.852Z,22.2
2018-01-24T04:52:05.616Z,22.3
2018-01-24T04:54:07.888Z,22.3
2018-01-24T04:56:05.177Z,22.3
2018-01-24T04:58:04.930Z,22.3
2018-01-24T05:00:04.763Z,22.2
2018-01-24T05:02:05.607Z,22.3
2018-01-24T05:04:07.918Z,22.3
2018-01-24T05:06:04.696Z,22.3
2018-01-24T05:08:05.797Z,22.3
2018-01-24T05:10:05.570Z,22.2
2018-01-24T05:12:07.928Z,22.2
2018-01-24T05:14:05.290Z,22.2
2018-01-24T05:16:05.089Z,22.3
2018-01-24T05:18:05.036Z,22.3
2018-01-24T05:20:04.785Z,22.2
2018-01-24T05:22:05.572Z,22.2
2018-01-24T05:24:05.387Z,22.3
2018-01-24T05:26:05.178Z,22.3
2018-01-24T05:28:07.484Z,22.2
2018-01-24T05:30:04.778Z,22.2
2018-01-24T05:32:05.616Z,22.2
2018-01-24T05:34:05.332Z,22.3
2018-01-24T05:36:05.082Z,22.3
2018-01-24T05:38:05.002Z,22.3
2018-01-24T05:40:04.837Z,22.3
2018-01-24T05:42:05.566Z,22.2
2018-01-24T05:44:10.585Z,22.2
2018-01-24T05:46:10.246Z,22.3
2018-01-24T05:48:04.994Z,22.3
2018-01-24T05:50:04.778Z,22.3
2018-01-24T05:52:05.513Z,22.3
2018-01-24T05:54:05.261Z,22.2
2018-01-24T05:56:05.049Z,22.2
2018-01-24T05:58:04.804Z,22.3
2018-01-24T06:00:05.574Z,22.3
2018-01-24T06:02:05.302Z,22.3
2018-01-24T06:04:05.074Z,22.3
2018-01-24T06:06:04.833Z,22.3
2018-01-24T06:08:05.594Z,22.2
2018-01-24T06:10:04.900Z,22.3
2018-01-24T06:12:04.720Z,22.3
2018-01-24T06:14:05.765Z,22.3
2018-01-24T06:16:05.496Z,22.2
2018-01-24T06:18:11.629Z,22.2
2018-01-24T06:20:05.023Z,22.3
2018-01-24T06:22:04.942Z,22.2
2018-01-24T06:24:04.772Z,22.3
2018-01-24T06:26:05.498Z,22.3
2018-01-24T06:28:07.796Z,22.3
2018-01-24T06:30:10.644Z,22.3
2018-01-24T06:32:05.518Z,22.3
2018-01-24T06:34:05.365Z,22.3
2018-01-24T06:36:05.066Z,22.3
2018-01-24T06:38:07.726Z,22.3
2018-01-24T06:40:05.009Z,22.3
2018-01-24T06:42:07.365Z,22.3
2018-01-24T06:44:05.553Z,22.3
2018-01-24T06:46:05.342Z,22.3
2018-01-24T06:48:07.172Z,22.3
2018-01-24T06:50:05.011Z,22.3
2018-01-24T06:52:04.805Z,22.3
2018-01-24T06:54:05.210Z,22.3
2018-01-24T06:56:05.298Z,22.3
2018-01-24T06:58:05.276Z,22.3
2018-01-24T07:00:05.209Z,22.3
2018-01-24T07:02:05.511Z,22.3
2018-01-24T07:04:10.330Z,22.3
2018-01-24T07:06:05.089Z,22.3
2018-01-24T07:08:04.903Z,22.3
2018-01-24T07:10:04.715Z,22.3
2018-01-24T07:12:10.568Z,22.3
2018-01-24T07:14:05.781Z,22.3
2018-01-24T07:16:07.632Z,22.3
2018-01-24T07:18:05.104Z,22.3
2018-01-24T07:20:14.949Z,22.3
2018-01-24T07:22:07.218Z,22.3
2018-01-24T07:24:04.979Z,22.3
2018-01-24T07:26:04.805Z,22.3
2018-01-24T07:28:08.079Z,22.3
2018-01-24T07:30:04.801Z,22.3
2018-01-24T07:32:05.054Z,22.3
2018-01-24T07:34:04.776Z,22.3
2018-01-24T07:36:10.589Z,22.3
2018-01-24T07:38:07.707Z,22.3
2018-01-24T07:40:05.435Z,22.3
2018-01-24T07:42:15.287Z,22.3
2018-01-24T07:44:05.347Z,22.3
2018-01-24T07:46:05.117Z,22.3
2018-01-24T07:48:07.446Z,22.3
2018-01-24T07:50:07.775Z,22.3
2018-01-24T07:52:05.029Z,22.3
2018-01-24T07:54:04.761Z,22.3
2018-01-24T07:56:05.013Z,22.3
2018-01-24T07:58:07.274Z,22.3
2018-01-24T08:00:17.661Z,22.3
2018-01-24T08:02:05.508Z,22.3
2018-01-24T08:04:05.482Z,22.3
2018-01-24T08:06:07.913Z,22.3
2018-01-24T08:08:05.029Z,22.3
2018-01-24T08:10:07.907Z,22.3
2018-01-24T08:12:04.689Z,22.3
2018-01-24T08:14:04.833Z,22.3
2018-01-24T08:16:05.681Z,22.3
2018-01-24T08:18:04.677Z,22.3
2018-01-24T08:20:05.485Z,22.3
2018-01-24T08:22:05.221Z,22.3
2018-01-24T08:24:05.018Z,22.3
2018-01-24T08:26:09.901Z,22.3
2018-01-24T08:28:05.149Z,22.3
2018-01-24T08:30:07.437Z,22.3
2018-01-24T08:32:08.056Z,22.3
2018-01-24T08:34:05.307Z,22.3
2018-01-24T08:36:04.787Z,22.3
2018-01-24T08:38:10.668Z,22.3
2018-01-24T08:40:04.919Z,22.4
2018-01-24T08:42:07.318Z,22.4
2018-01-24T08:44:05.076Z,22.4
2018-01-24T08:46:12.447Z,22.4
2018-01-24T08:48:05.233Z,22.3
2018-01-24T08:50:04.974Z,22.4
2018-01-24T08:52:07.387Z,22.4
2018-01-24T08:54:05.110Z,22.4
2018-01-24T08:56:04.982Z,22.5
2018-01-24T08:58:04.811Z,22.6
2018-01-24T09:00:07.594Z,22.6
2018-01-24T09:02:07.907Z,22.6
2018-01-24T09:04:04.697Z,22.6
2018-01-24T09:06:05.194Z,22.6
2018-01-24T09:08:04.952Z,22.6
2018-01-24T09:10:07.450Z,22.5
2018-01-24T09:12:05.171Z,22.5
2018-01-24T09:14:04.979Z,22.4
2018-01-24T09:16:04.772Z,22.4
2018-01-24T09:18:04.766Z,22.4
2018-01-24T09:20:05.545Z,22.4
2018-01-24T09:22:05.416Z,22.4
2018-01-24T09:24:07.943Z,22.4
2018-01-24T09:26:04.744Z,22.4
2018-01-24T09:28:05.652Z,22.4
2018-01-24T09:30:05.480Z,22.4
2018-01-24T09:32:05.334Z,22.5
2018-01-24T09:34:05.599Z,22.5
2018-01-24T09:36:07.988Z,22.5
2018-01-24T09:38:04.786Z,22.4
2018-01-24T09:40:05.570Z,22.4
2018-01-24T09:42:07.856Z,22.4
2018-01-24T09:44:08.112Z,22.4
2018-01-24T09:46:05.487Z,22.4
2018-01-24T09:48:05.209Z,22.5
2018-01-24T09:50:05.444Z,22.6
2018-01-24T09:52:05.299Z,22.6
2018-01-24T09:54:07.662Z,22.6
2018-01-24T09:56:05.439Z,22.6
2018-01-24T09:58:05.165Z,22.5
2018-01-24T10:00:04.962Z,22.5
2018-01-24T10:02:10.321Z,22.5
2018-01-24T10:04:05.083Z,22.5
2018-01-24T10:06:04.973Z,22.5
2018-01-24T10:08:05.071Z,22.5
2018-01-24T10:10:05.400Z,22.6
2018-01-24T10:12:05.130Z,22.6
2018-01-24T10:14:05.435Z,22.6
2018-01-24T10:16:05.144Z,22.6
2018-01-24T10:18:04.654Z,22.6
2018-01-24T10:20:05.423Z,22.6
2018-01-24T10:22:05.190Z,22.6
2018-01-24T10:24:04.999Z,22.6
2018-01-24T10:26:05.110Z,22.6
2018-01-24T10:28:04.935Z,22.6
2018-01-24T10:30:04.693Z,22.6
2018-01-24T10:32:04.978Z,22.6
2018-01-24T10:34:04.836Z,22.7
2018-01-24T10:36:05.120Z,22.7
2018-01-24T10:38:05.250Z,22.7
2018-01-24T10:40:05.080Z,22.7
2018-01-24T10:42:04.885Z,22.7
2018-01-24T10:44:04.936Z,22.7
2018-01-24T10:46:07.506Z,22.7
2018-01-24T10:48:05.295Z,22.7
2018-01-24T10:50:05.194Z,22.7
2018-01-24T10:52:04.962Z,22.7
2018-01-24T10:54:04.766Z,22.7
2018-01-24T10:56:05.400Z,22.7
2018-01-24T10:58:05.192Z,22.7
2018-01-24T11:00:04.953Z,22.7
2018-01-24T11:02:04.767Z,22.7
2018-01-24T11:04:05.525Z,22.7
2018-01-24T11:06:05.352Z,22.7
2018-01-24T11:08:10.172Z,22.7
2018-01-24T11:10:04.992Z,22.7
2018-01-24T11:12:05.097Z,22.7
2018-01-24T11:14:07.527Z,22.7
2018-01-24T11:16:05.291Z,22.7
2018-01-24T11:18:05.224Z,22.7
2018-01-24T11:20:07.978Z,22.7
2018-01-24T11:22:04.815Z,22.7
2018-01-24T11:24:08.066Z,22.7
2018-01-24T11:26:04.933Z,22.7
2018-01-24T11:28:04.715Z,22.7
2018-01-24T11:30:08.024Z,22.7
2018-01-24T11:32:07.381Z,22.7
2018-01-24T11:34:05.164Z,22.8
2018-01-24T11:36:04.906Z,22.7
2018-01-24T11:38:04.670Z,22.7
2018-01-24T11:40:05.462Z,22.8
2018-01-24T11:42:05.234Z,22.7
2018-01-24T11:44:10.197Z,22.8
2018-01-24T11:46:07.453Z,22.8
2018-01-24T11:48:05.195Z,22.7
2018-01-24T11:50:05.046Z,22.8
2018-01-24T11:52:04.916Z,22.7
2018-01-24T11:54:04.767Z,22.7
2018-01-24T11:56:04.705Z,22.7
2018-01-24T11:58:05.490Z,22.8
2018-01-24T12:00:05.592Z,22.7
2018-01-24T12:02:05.660Z,22.7
2018-01-24T12:04:05.420Z,22.7
2018-01-24T12:06:05.160Z,22.7
2018-01-24T12:08:04.936Z,22.7
2018-01-24T12:10:10.258Z,22.7
2018-01-24T12:12:05.203Z,22.7
2018-01-24T12:14:05.536Z,22.8
2018-01-24T12:16:05.368Z,22.8
2018-01-24T12:18:07.916Z,22.8
2018-01-24T12:20:05.002Z,22.8
2018-01-24T12:22:04.747Z,22.8
2018-01-24T12:24:05.485Z,22.9
2018-01-24T12:26:07.801Z,22.9
2018-01-24T12:28:05.596Z,22.9
2018-01-24T12:30:05.360Z,22.9
2018-01-24T12:32:05.133Z,22.9
2018-01-24T12:34:05.005Z,23
2018-01-24T12:36:09.811Z,23
2018-01-24T12:38:05.599Z,23
2018-01-24T12:40:05.470Z,23
2018-01-24T12:42:05.309Z,23
2018-01-24T12:44:07.681Z,23.1
2018-01-24T12:46:05.505Z,23.1
2018-01-24T12:48:05.518Z,23.1
2018-01-24T12:50:05.502Z,23.1
2018-01-24T12:52:05.470Z,23.2
2018-01-24T12:54:10.284Z,23.3
2018-01-24T12:56:06.404Z,23.3
2018-01-24T12:58:05.284Z,23.3
2018-01-24T13:00:05.074Z,23.4
2018-01-24T13:02:05.363Z,23.4
2018-01-24T13:04:05.140Z,23.4
2018-01-24T13:06:07.931Z,23.4
2018-01-24T13:08:04.769Z,23.4
2018-01-24T13:10:05.629Z,23.4
2018-01-24T13:12:05.481Z,23.4
2018-01-24T13:14:05.281Z,23.4
2018-01-24T13:16:05.045Z,23.5
2018-01-24T13:18:05.047Z,23.4
2018-01-24T13:20:04.902Z,23.4
2018-01-24T13:22:04.750Z,23.4
2018-01-24T13:24:08.056Z,23.4
2018-01-24T13:26:05.198Z,23.4
2018-01-24T13:28:07.550Z,23.4
2018-01-24T13:30:05.343Z,23.4
2018-01-24T13:32:07.672Z,23.4
2018-01-24T13:34:07.947Z,23.4
2018-01-24T13:36:04.693Z,23.4
2018-01-24T13:38:05.683Z,23.4
2018-01-24T13:40:05.441Z,23.5
2018-01-24T13:42:05.221Z,23.5
2018-01-24T13:44:05.182Z,23.4
2018-01-24T13:46:07.484Z,23.5
2018-01-24T13:48:05.373Z,23.5
2018-01-24T13:50:10.407Z,23.5
2018-01-24T13:52:07.227Z,23.5
2018-01-24T13:54:18.157Z,23.5
2018-01-24T13:56:05.263Z,23.5
2018-01-24T13:58:05.418Z,23.5
2018-01-24T14:00:10.280Z,23.5
2018-01-24T14:02:05.331Z,23.5
2018-01-24T14:04:05.150Z,23.5
2018-01-24T14:06:05.215Z,23.4
2018-01-24T14:08:05.322Z,23.5
2018-01-24T14:10:05.492Z,23.5
2018-01-24T14:12:05.294Z,23.5
2018-01-24T14:14:05.522Z,23.5
2018-01-24T14:16:06.345Z,23.5
2018-01-24T14:18:05.597Z,23.5
2018-01-24T14:20:05.388Z,23.5
2018-01-24T14:22:05.936Z,23.5
2018-01-24T14:24:05.013Z,23.5
2018-01-24T14:26:15.801Z,23.5
2018-01-24T14:28:07.903Z,23.5
2018-01-24T14:30:05.010Z,23.5
2018-01-24T14:32:05.041Z,23.5
2018-01-24T14:34:07.555Z,23.5
2018-01-24T14:36:05.123Z,23.5
2018-01-24T14:38:08.268Z,23.5
2018-01-24T14:40:05.110Z,23.5
2018-01-24T14:42:05.136Z,23.5
2018-01-24T14:44:05.065Z,23.5
2018-01-24T14:46:07.375Z,23.5
2018-01-24T14:48:05.236Z,23.5
2018-01-24T14:50:13.177Z,23.5
2018-01-24T14:52:09.965Z,23.5
2018-01-24T14:54:04.670Z,23.5
2018-01-24T14:56:10.441Z,23.5
2018-01-24T14:58:05.990Z,23.5
2018-01-24T15:00:07.246Z,23.5
2018-01-24T15:02:05.048Z,23.5
2018-01-24T15:04:04.896Z,23.5
2018-01-24T15:06:04.697Z,23.5
2018-01-24T15:08:08.323Z,23.5
2018-01-24T15:10:05.119Z,23.5
2018-01-24T15:12:05.142Z,23.5
2018-01-24T15:14:04.913Z,23.5
2018-01-24T15:16:04.655Z,23.5
2018-01-24T15:18:05.623Z,23.5
2018-01-24T15:20:05.694Z,23.5
2018-01-24T15:22:05.469Z,23.5
2018-01-24T15:24:05.345Z,23.5
2018-01-24T15:26:05.166Z,23.5
2018-01-24T15:28:04.917Z,23.5
2018-01-24T15:30:09.838Z,23.5
2018-01-24T15:32:08.576Z,23.5
2018-01-24T15:34:05.499Z,23.5
2018-01-24T15:36:05.252Z,23.6
2018-01-24T15:38:05.247Z,23.6
2018-01-24T15:40:05.049Z,23.5
2018-01-24T15:42:05.061Z,23.5
2018-01-24T15:44:04.815Z,23.5
2018-01-24T15:46:05.545Z,23.5
2018-01-24T15:48:04.805Z,23.5
2018-01-24T15:50:05.865Z,23.5
2018-01-24T15:52:05.614Z,23.5
2018-01-24T15:54:10.448Z,23.5
2018-01-24T15:56:05.294Z,23.5
2018-01-24T15:58:12.795Z,23.5
2018-01-24T16:00:06.126Z,23.5
2018-01-24T16:02:04.926Z,23.5
2018-01-24T16:04:04.765Z,23.5
2018-01-24T16:06:05.701Z,23.5
2018-01-24T16:08:05.480Z,23.5
2018-01-24T16:10:05.381Z,23.5
2018-01-24T16:12:05.136Z,23.5
2018-01-24T16:14:04.885Z,23.5
2018-01-24T16:16:05.982Z,23.6
2018-01-24T16:18:05.002Z,23.7
2018-01-24T16:20:07.512Z,23.6
2018-01-24T16:22:05.274Z,23.6
2018-01-24T16:24:05.022Z,23.6
2018-01-24T16:26:04.783Z,23.5
2018-01-24T16:28:07.648Z,23.4
2018-01-24T16:30:10.420Z,23.5
2018-01-24T16:32:05.196Z,23.5
2018-01-24T16:34:17.654Z,23.5
2018-01-24T16:36:05.412Z,23.5
2018-01-24T16:38:05.196Z,23.5
2018-01-24T16:40:04.989Z,23.5
2018-01-24T16:42:07.385Z,23.5
2018-01-24T16:44:05.192Z,23.5
2018-01-24T16:46:04.909Z,23.5
2018-01-24T16:48:04.659Z,23.5
2018-01-24T16:50:10.450Z,23.5
2018-01-24T16:52:06.212Z,23.5
2018-01-24T16:54:07.516Z,23.5
2018-01-24T16:56:04.821Z,23.5
2018-01-24T16:58:05.534Z,23.5
2018-01-24T17:00:05.364Z,23.5
2018-01-24T17:02:05.156Z,23.5
2018-01-24T17:04:04.963Z,23.5
2018-01-24T17:06:04.713Z,23.6
2018-01-24T17:08:05.318Z,23.6
2018-01-24T17:10:05.075Z,23.6
2018-01-24T17:12:07.349Z,23.7
2018-01-24T17:14:07.646Z,23.7
2018-01-24T17:16:10.446Z,23.8
2018-01-24T17:18:05.416Z,23.8
2018-01-24T17:20:05.447Z,23.8
2018-01-24T17:22:05.235Z,23.9
2018-01-24T17:24:05.008Z,23.9
2018-01-24T17:26:10.476Z,23.8
2018-01-24T17:28:05.285Z,23.8
2018-01-24T17:30:05.095Z,23.8
2018-01-24T17:32:07.627Z,24
2018-01-24T17:34:05.356Z,24
2018-01-24T17:36:05.137Z,24
2018-01-24T17:38:05.148Z,24
2018-01-24T17:40:04.914Z,24
2018-01-24T17:42:04.681Z,24
2018-01-24T17:44:05.702Z,24
2018-01-24T17:46:05.510Z,24
2018-01-24T17:48:05.212Z,24
2018-01-24T17:50:05.262Z,24
2018-01-24T17:52:07.931Z,24
2018-01-24T17:54:05.257Z,24
2018-01-24T17:56:05.284Z,24
2018-01-24T17:58:05.063Z,24
2018-01-24T18:00:05.261Z,24
2018-01-24T18:02:07.810Z,24
2018-01-24T18:04:07.260Z,23.9
2018-01-24T18:06:07.515Z,23.8
2018-01-24T18:08:05.758Z,23.8
2018-01-24T18:10:08.103Z,23.8
2018-01-24T18:12:04.991Z,23.8
2018-01-24T18:14:07.293Z,23.7
2018-01-24T18:16:05.125Z,23.7
2018-01-24T18:18:05.088Z,23.7
2018-01-24T18:20:07.454Z,23.7
2018-01-24T18:22:05.447Z,23.7
2018-01-24T18:24:05.171Z,23.7
2018-01-24T18:26:04.941Z,23.7
2018-01-24T18:28:04.738Z,23.7
2018-01-24T18:30:05.453Z,23.7
2018-01-24T18:32:05.235Z,23.7
2018-01-24T18:34:05.040Z,23.7
2018-01-24T18:36:05.048Z,23.7
2018-01-24T18:38:05.586Z,23.6
2018-01-24T18:40:04.948Z,23.7
2018-01-24T18:42:05.493Z,23.7
2018-01-24T18:44:05.437Z,23.6
2018-01-24T18:46:05.694Z,23.6
2018-01-24T18:48:10.875Z,23.6
2018-01-24T18:50:04.754Z,23.6
2018-01-24T18:52:05.200Z,23.7
2018-01-24T18:54:05.453Z,23.6
2018-01-24T18:56:05.655Z,23.6
2018-01-24T18:58:05.356Z,23.6
2018-01-24T19:00:05.158Z,23.6
2018-01-24T19:02:05.070Z,23.6
2018-01-24T19:04:04.913Z,23.6
2018-01-24T19:06:04.676Z,23.6
2018-01-24T19:08:05.554Z,23.6
2018-01-24T19:10:10.483Z,23.6
2018-01-24T19:12:05.558Z,23.6
2018-01-24T19:14:05.361Z,23.6
2018-01-24T19:16:05.231Z,23.6
2018-01-24T19:18:07.276Z,23.7
2018-01-24T19:20:07.577Z,23.7
2018-01-24T19:22:05.317Z,23.6
2018-01-24T19:24:05.051Z,23.7
2018-01-24T19:26:07.405Z,23.6
2018-01-24T19:28:05.192Z,23.6
2018-01-24T19:30:04.960Z,23.6
2018-01-24T19:32:04.686Z,23.6
2018-01-24T19:34:05.423Z,23.7
2018-01-24T19:36:04.709Z,23.6
2018-01-24T19:38:08.312Z,23.6
2018-01-24T19:40:05.066Z,23.6
2018-01-24T19:42:10.074Z,23.6
2018-01-24T19:44:07.620Z,23.6
2018-01-24T19:46:05.368Z,23.6
2018-01-24T19:48:06.412Z,23.6
2018-01-24T19:50:15.290Z,23.6
2018-01-24T19:52:07.615Z,23.6
2018-01-24T19:54:07.364Z,23.6
2018-01-24T19:56:07.866Z,23.6
2018-01-24T19:58:10.180Z,23.6
2018-01-24T20:00:05.240Z,23.6
2018-01-24T20:02:05.008Z,23.6
2018-01-24T20:04:05.293Z,23.6
2018-01-24T20:06:05.050Z,23.5
2018-01-24T20:08:10.492Z,23.6
2018-01-24T20:10:12.317Z,23.5
2018-01-24T20:12:05.128Z,23.5
2018-01-24T20:14:04.893Z,23.5
2018-01-24T20:16:04.690Z,23.5
2018-01-24T20:18:05.312Z,23.5
2018-01-24T20:20:05.112Z,23.5
2018-01-24T20:22:04.920Z,23.5
2018-01-24T20:24:07.726Z,23.5
2018-01-24T20:26:07.646Z,23.5
2018-01-24T20:28:07.945Z,23.5
2018-01-24T20:30:04.716Z,23.5
2018-01-24T20:32:08.050Z,23.5
2018-01-24T20:34:04.750Z,23.5
2018-01-24T20:36:07.989Z,23.5
2018-01-24T20:38:04.819Z,23.5
2018-01-24T20:40:05.610Z,23.5
2018-01-24T20:42:04.863Z,23.4
2018-01-24T20:44:04.651Z,23.4
2018-01-24T20:46:05.499Z,23.4
2018-01-24T20:48:05.295Z,23.4
2018-01-24T20:50:05.338Z,23.4
2018-01-24T20:52:05.026Z,23.4
2018-01-24T20:54:04.753Z,23.4
2018-01-24T20:56:05.538Z,23.4
2018-01-24T20:58:07.895Z,23.4
2018-01-24T21:00:12.219Z,23.4
2018-01-24T21:02:04.993Z,23.4
2018-01-24T21:04:04.764Z,23.4
2018-01-24T21:06:06.529Z,23.4
2018-01-24T21:08:05.283Z,23.4
2018-01-24T21:10:05.070Z,23.4
2018-01-24T21:12:04.798Z,23.4
2018-01-24T21:14:05.861Z,23.4
2018-01-24T21:16:04.816Z,23.4
2018-01-24T21:18:04.843Z,23.4
2018-01-24T21:20:05.267Z,23.4
2018-01-24T21:22:05.244Z,23.4
2018-01-24T21:24:05.028Z,23.4
2018-01-24T21:26:07.389Z,23.4
2018-01-24T21:28:05.160Z,23.4
2018-01-24T21:30:04.888Z,23.4
2018-01-24T21:32:07.627Z,23.4
2018-01-24T21:34:07.416Z,23.4
2018-01-24T21:36:07.765Z,23.4
2018-01-24T21:38:05.797Z,23.4
2018-01-24T21:40:04.794Z,23.4
2018-01-24T21:42:10.175Z,23.3
2018-01-24T21:44:07.566Z,23.4
2018-01-24T21:46:05.582Z,23.4
2018-01-24T21:48:05.337Z,23.4
2018-01-24T21:50:07.705Z,23.4
2018-01-24T21:52:05.541Z,23.3
2018-01-24T21:54:05.306Z,23.4
2018-01-24T21:56:05.637Z,23.4
2018-01-24T21:58:07.444Z,23.3
2018-01-24T22:00:05.287Z,23.3
2018-01-24T22:02:04.832Z,23.3
2018-01-24T22:04:05.101Z,23.3
2018-01-24T22:06:05.526Z,23.3
2018-01-24T22:08:05.535Z,23.3
2018-01-24T22:10:05.543Z,23.4
2018-01-24T22:12:07.838Z,23.3
2018-01-24T22:14:05.591Z,23.3
2018-01-24T22:16:07.410Z,23.3
2018-01-24T22:18:05.417Z,23.4
2018-01-24T22:20:04.994Z,23.3
2018-01-24T22:22:12.441Z,23.4
2018-01-24T22:24:05.280Z,23.4
2018-01-24T22:26:05.321Z,23.3
2018-01-24T22:28:04.932Z,23.3
2018-01-24T22:30:04.680Z,23.3
2018-01-24T22:32:05.462Z,23.3
2018-01-24T22:34:04.772Z,23.3
2018-01-24T22:36:05.548Z,23.3
2018-01-24T22:38:05.360Z,23.3
2018-01-24T22:40:05.035Z,23.3
2018-01-24T22:42:04.840Z,23.3
2018-01-24T22:44:13.255Z,23.3
2018-01-24T22:46:06.752Z,23.3
2018-01-24T22:48:04.860Z,23.3
2018-01-24T22:50:04.697Z,23.3
2018-01-24T22:52:08.004Z,23.3
2018-01-24T22:54:04.793Z,23.3
2018-01-24T22:56:05.554Z,23.2
2018-01-24T22:58:04.874Z,23.3
2018-01-24T23:00:04.702Z,23.2
2018-01-24T23:02:05.438Z,23.2
2018-01-24T23:04:05.165Z,23.2
2018-01-24T23:06:05.173Z,23.2
2018-01-24T23:08:05.137Z,23.2
2018-01-24T23:10:07.409Z,23.1
2018-01-24T23:12:05.483Z,23.1
2018-01-24T23:14:05.494Z,23.1
2018-01-24T23:16:05.373Z,23.1
2018-01-24T23:18:05.429Z,23.1
2018-01-24T23:20:08.040Z,23.1
2018-01-24T23:22:04.760Z,23.1
2018-01-24T23:24:05.577Z,23.1
2018-01-24T23:26:04.989Z,23.1
2018-01-24T23:28:05.068Z,23.1
2018-01-24T23:30:04.822Z,23.1
2018-01-24T23:32:05.900Z,23.1
2018-01-24T23:34:05.269Z,23.1
2018-01-24T23:36:05.035Z,23.1
2018-01-24T23:38:05.546Z,23.1
2018-01-24T23:40:05.350Z,23.1
2018-01-24T23:42:05.136Z,23
2018-01-24T23:44:04.935Z,23
2018-01-24T23:46:04.656Z,23.1
2018-01-24T23:48:05.413Z,23
2018-01-24T23:50:07.682Z,23
2018-01-24T23:52:04.993Z,23
2018-01-24T23:54:05.103Z,23
2018-01-24T23:56:04.896Z,23
2018-01-24T23:58:05.611Z,23
